Time;durP1;ratioP1;P1;durP2;ratioP2;P2;SDS_P1;SDS_P2;PMS_P1;PMS_P2;Temp;Humidity;BMP_temperature;BMP_pressure;BME280_temperature;BME280_humidity;BME280_pressure;Samples;Min_cycle;Max_cycle;Signal;HPM_P1;HPM_P2
2021/08/12 00:00:15;;;;;;;13.80;9.07;;;26.90;56.10;;;;;;4232048;28;20044;-44
2021/08/12 00:02:17;;;;;;;9.27;8.05;;;26.90;56.20;;;;;;4232324;28;20052;-47
2021/08/12 00:04:20;;;;;;;10.50;7.65;;;26.90;56.10;;;;;;4232327;28;20103;-45
2021/08/12 00:06:22;;;;;;;11.98;7.63;;;26.90;56.10;;;;;;4232542;28;20051;-44
2021/08/12 00:11:05;;;;;;;11.23;8.10;;;26.90;55.90;;;;;;4232658;28;20048;-43
2021/08/12 00:13:06;;;;;;;11.00;8.00;;;26.90;55.80;;;;;;4235841;28;20052;-45
2021/08/12 00:15:09;;;;;;;9.63;8.00;;;26.90;56.10;;;;;;4235857;28;20052;-43
2021/08/12 00:17:11;;;;;;;15.77;8.93;;;26.90;56.10;;;;;;4235695;28;20048;-43
2021/08/12 00:19:13;;;;;;;7.65;6.82;;;27.00;56.00;;;;;;4235859;28;20052;-43
2021/08/12 00:21:15;;;;;;;11.48;7.95;;;26.90;55.70;;;;;;4235790;28;20051;-43
2021/08/12 00:23:17;;;;;;;9.63;6.95;;;26.90;55.90;;;;;;4235782;28;20054;-43
2021/08/12 00:25:19;;;;;;;8.80;7.00;;;26.90;55.70;;;;;;4235714;28;20147;-43
2021/08/12 00:27:21;;;;;;;7.75;6.55;;;26.90;55.60;;;;;;4235712;28;20048;-43
2021/08/12 00:29:23;;;;;;;17.35;10.50;;;26.90;55.90;;;;;;4235577;28;20107;-42
2021/08/12 00:31:25;;;;;;;12.60;6.95;;;26.90;55.70;;;;;;4235616;28;20119;-42
2021/08/12 00:33:27;;;;;;;11.85;5.90;;;26.90;55.80;;;;;;4235453;28;20078;-42
2021/08/12 00:35:29;;;;;;;8.82;6.40;;;26.90;55.50;;;;;;4235583;28;20048;-42
2021/08/12 00:37:31;;;;;;;9.52;6.25;;;26.80;55.50;;;;;;4235459;28;20048;-43
2021/08/12 00:39:33;;;;;;;9.30;6.50;;;26.80;55.60;;;;;;4235488;28;20112;-42
2021/08/12 00:41:35;;;;;;;12.18;7.93;;;26.80;55.70;;;;;;4235353;28;20050;-43
2021/08/12 00:43:37;;;;;;;9.80;7.25;;;26.80;55.70;;;;;;4235389;28;20040;-42
2021/08/12 00:45:39;;;;;;;8.50;6.28;;;26.80;55.60;;;;;;4235559;28;20054;-42
2021/08/12 00:47:42;;;;;;;7.75;5.78;;;26.90;55.50;;;;;;4235523;28;20054;-43
2021/08/12 00:49:44;;;;;;;9.18;6.25;;;26.80;55.40;;;;;;4235145;28;20044;-44
2021/08/12 00:51:47;;;;;;;8.07;5.90;;;26.80;55.40;;;;;;4235215;28;20077;-42
2021/08/12 00:53:49;;;;;;;10.25;7.53;;;26.80;55.30;;;;;;4235409;28;20060;-42
2021/08/12 00:55:51;;;;;;;6.75;4.78;;;26.80;55.40;;;;;;4235147;28;20081;-42
2021/08/12 00:57:53;;;;;;;7.53;5.63;;;26.70;55.20;;;;;;4235253;28;20048;-44
2021/08/12 00:59:55;;;;;;;8.98;6.03;;;26.50;55.60;;;;;;4235374;28;20044;-42
2021/08/12 01:01:58;;;;;;;8.05;5.32;;;26.60;55.60;;;;;;4235336;28;20130;-42
2021/08/12 01:04:01;;;;;;;5.88;4.80;;;26.50;55.40;;;;;;4235357;28;20044;-42
2021/08/12 01:06:06;;;;;;;6.90;5.45;;;26.40;55.30;;;;;;4235339;28;20044;-43
2021/08/12 01:08:15;;;;;;;10.50;5.28;;;26.40;55.50;;;;;;4235257;28;20058;-44
2021/08/12 01:10:20;;;;;;;8.73;5.80;;;26.40;55.50;;;;;;4235207;28;20044;-43
2021/08/12 01:12:35;;;;;;;6.82;4.90;;;26.40;55.20;;;;;;4235195;28;20071;-44
2021/08/12 01:14:51;;;;;;;7.63;5.18;;;26.50;55.40;;;;;;4235175;28;20073;-43
2021/08/12 01:17:08;;;;;;;6.95;5.35;;;26.50;55.20;;;;;;4235032;28;20078;-44
2021/08/12 01:19:25;;;;;;;7.30;5.45;;;26.50;55.30;;;;;;4235263;28;20052;-43
2021/08/12 01:21:27;;;;;;;9.65;6.70;;;26.50;55.50;;;;;;4234872;28;20078;-42
2021/08/12 01:23:30;;;;;;;11.88;8.55;;;26.60;55.30;;;;;;4234228;28;20058;-44
2021/08/12 01:25:34;;;;;;;7.15;5.47;;;26.60;55.20;;;;;;4234873;28;20048;-43
2021/08/12 01:27:39;;;;;;;6.63;4.80;;;26.60;55.20;;;;;;4234988;28;20040;-44
2021/08/12 01:30:00;;;;;;;8.52;5.72;;;26.60;55.00;;;;;;4234949;28;20074;-44
2021/08/12 01:32:07;;;;;;;6.55;4.72;;;26.60;55.10;;;;;;4234750;28;20052;-43
2021/08/12 01:34:16;;;;;;;11.68;9.43;;;26.60;55.10;;;;;;4234760;28;20074;-42
2021/08/12 01:36:20;;;;;;;8.10;6.38;;;26.70;55.10;;;;;;4234814;28;20048;-42
2021/08/12 01:38:27;;;;;;;6.00;4.97;;;26.70;55.00;;;;;;4234841;28;20052;-42
2021/08/12 01:40:35;;;;;;;9.40;4.95;;;26.70;54.80;;;;;;4234680;28;20131;-56
2021/08/12 01:42:39;;;;;;;5.85;4.35;;;26.60;54.70;;;;;;4234534;28;20044;-56
2021/08/12 01:44:43;;;;;;;6.05;4.35;;;26.60;54.90;;;;;;4234693;28;20044;-56
2021/08/12 01:46:47;;;;;;;5.40;4.30;;;26.50;55.00;;;;;;4234503;28;20104;-56
2021/08/12 01:48:50;;;;;;;6.28;4.38;;;26.50;55.10;;;;;;4234566;28;20072;-56
2021/08/12 01:50:55;;;;;;;7.43;5.22;;;26.40;55.20;;;;;;4234496;28;20043;-56
2021/08/12 01:52:57;;;;;;;;;;;26.50;55.10;;;;;;4234840;28;20402;-56
2021/08/12 01:54:59;;;;;;;9.32;6.53;;;26.50;54.90;;;;;;4234541;28;20291;-56
2021/08/12 01:57:02;;;;;;;10.10;4.80;;;26.60;54.70;;;;;;4233633;28;20044;-56
2021/08/12 01:59:06;;;;;;;7.22;4.85;;;26.50;54.80;;;;;;4232984;28;20048;-57
2021/08/12 02:01:08;;;;;;;7.05;4.10;;;26.40;54.80;;;;;;4233027;28;20050;-56
2021/08/12 02:03:15;;;;;;;5.43;3.97;;;26.40;54.70;;;;;;4233199;28;20043;-57
2021/08/12 02:05:17;;;;;;;8.23;6.13;;;26.40;54.80;;;;;;4232982;28;20078;-56
2021/08/12 02:07:19;;;;;;;7.00;5.00;;;26.40;54.90;;;;;;4233221;28;20048;-56
2021/08/12 02:09:21;;;;;;;9.18;4.57;;;26.50;54.70;;;;;;4232919;28;20107;-56
2021/08/12 02:11:23;;;;;;;13.38;8.75;;;26.40;54.60;;;;;;4232908;28;20044;-56
2021/08/12 02:13:27;;;;;;;8.75;6.63;;;26.40;54.80;;;;;;4232936;28;20055;-55
2021/08/12 02:15:29;;;;;;;9.88;6.85;;;26.40;54.80;;;;;;4232913;28;20044;-57
2021/08/12 02:17:31;;;;;;;8.25;4.35;;;26.50;54.60;;;;;;4233074;28;20062;-57
2021/08/12 02:19:34;;;;;;;5.43;4.18;;;26.50;54.70;;;;;;4233071;28;20048;-57
2021/08/12 02:21:45;;;;;;;5.28;4.35;;;26.40;54.50;;;;;;4232705;28;20131;-57
2021/08/12 02:23:59;;;;;;;4.68;4.18;;;26.40;54.50;;;;;;4232968;28;20048;-57
2021/08/12 02:26:13;;;;;;;5.90;4.18;;;26.30;55.10;;;;;;4232713;28;20051;-57
2021/08/12 02:28:16;;;;;;;6.18;4.50;;;26.40;54.50;;;;;;4232641;28;20054;-57
2021/08/12 02:30:18;;;;;;;5.78;4.50;;;26.40;54.50;;;;;;4232619;28;20051;-57
2021/08/12 02:32:23;;;;;;;8.90;4.93;;;26.40;54.70;;;;;;4232587;28;20048;-57
2021/08/12 02:34:27;;;;;;;6.32;4.43;;;26.40;54.80;;;;;;4232293;28;20050;-57
2021/08/12 02:36:30;;;;;;;4.88;4.05;;;26.40;54.70;;;;;;4231900;28;20120;-57
2021/08/12 02:38:34;;;;;;;5.57;4.45;;;26.40;54.50;;;;;;4232631;28;20048;-57
2021/08/12 02:40:37;;;;;;;5.68;4.28;;;26.40;54.90;;;;;;4232712;28;20048;-55
2021/08/12 02:42:42;;;;;;;6.88;4.47;;;26.40;54.70;;;;;;4232536;28;20093;-57
2021/08/12 02:44:45;;;;;;;7.97;5.45;;;26.40;54.80;;;;;;4232558;28;20044;-56
2021/08/12 02:46:49;;;;;;;5.30;4.78;;;26.50;54.70;;;;;;4232348;28;20044;-57
2021/08/12 02:48:54;;;;;;;7.10;5.03;;;26.40;54.50;;;;;;4232321;28;20048;-56
2021/08/12 02:50:58;;;;;;;9.50;4.65;;;26.40;54.70;;;;;;4232271;28;20048;-56
2021/08/12 02:53:00;;;;;;;13.05;8.38;;;26.40;54.60;;;;;;4232183;28;20044;-56
2021/08/12 02:55:04;;;;;;;9.57;4.60;;;26.50;54.60;;;;;;4232216;28;20048;-56
2021/08/12 02:57:07;;;;;;;6.70;4.57;;;26.50;54.50;;;;;;4232236;28;20044;-56
2021/08/12 02:59:09;;;;;;;7.22;4.63;;;26.50;54.40;;;;;;4232168;28;20055;-57
2021/08/12 03:01:13;;;;;;;8.50;5.55;;;26.40;54.20;;;;;;4232308;28;20040;-56
2021/08/12 03:03:17;;;;;;;11.70;6.47;;;26.40;54.40;;;;;;4232044;28;20097;-56
2021/08/12 03:05:20;;;;;;;10.15;5.90;;;26.50;54.50;;;;;;4232188;28;20072;-56
2021/08/12 03:07:24;;;;;;;6.50;5.32;;;26.40;54.30;;;;;;4231999;28;20093;-57
2021/08/12 03:09:27;;;;;;;13.35;8.70;;;26.40;54.50;;;;;;4232079;28;20044;-57
2021/08/12 03:11:30;;;;;;;8.93;4.60;;;26.40;54.50;;;;;;4232001;28;20052;-57
2021/08/12 03:13:32;;;;;;;10.55;4.65;;;26.40;54.10;;;;;;4231824;28;20089;-56
2021/08/12 03:15:35;;;;;;;8.57;4.53;;;26.40;54.60;;;;;;4232181;28;20477;-57
2021/08/12 03:17:38;;;;;;;7.15;6.22;;;26.40;54.60;;;;;;4232088;28;20058;-56
2021/08/12 03:19:42;;;;;;;10.45;7.00;;;26.40;54.40;;;;;;4231845;28;20048;-56
2021/08/12 03:22:01;;;;;;;7.22;4.97;;;26.40;54.40;;;;;;4231651;28;20126;-56
2021/08/12 03:24:04;;;;;;;7.88;4.63;;;26.40;54.40;;;;;;4231774;28;20047;-56
2021/08/12 03:26:06;;;;;;;6.00;4.72;;;26.40;54.30;;;;;;4231882;28;20059;-56
2021/08/12 03:28:08;;;;;;;6.95;5.13;;;26.40;54.40;;;;;;4231893;28;20052;-57
2021/08/12 03:30:11;;;;;;;9.27;5.97;;;26.40;54.30;;;;;;4231801;28;20052;-56
2021/08/12 03:32:13;;;;;;;7.57;5.85;;;26.40;54.10;;;;;;4231624;28;20048;-57
2021/08/12 03:34:15;;;;;;;8.55;4.80;;;26.40;54.40;;;;;;4231667;28;20082;-57
2021/08/12 03:36:17;;;;;;;5.35;3.88;;;26.50;54.10;;;;;;4231597;28;20044;-57
2021/08/12 03:38:21;;;;;;;6.72;4.07;;;26.50;54.30;;;;;;4231921;28;20055;-57
2021/08/12 03:40:23;;;;;;;6.72;4.63;;;26.60;54.30;;;;;;4231606;28;20048;-58
2021/08/12 03:42:25;;;;;;;5.57;4.20;;;26.70;54.40;;;;;;4231392;28;20044;-57
2021/08/12 03:44:27;;;;;;;6.10;4.55;;;26.60;54.60;;;;;;4231506;28;20043;-58
2021/08/12 03:46:38;;;;;;;5.85;4.10;;;26.60;54.50;;;;;;4231194;28;20044;-58
2021/08/12 03:48:40;;;;;;;8.60;4.55;;;26.70;54.80;;;;;;4231456;28;20054;-58
2021/08/12 03:50:42;;;;;;;5.15;3.88;;;26.60;54.70;;;;;;4231543;28;20047;-58
2021/08/12 03:52:44;;;;;;;6.45;4.82;;;26.60;54.60;;;;;;4231369;28;20078;-58
2021/08/12 03:54:46;;;;;;;5.82;4.50;;;26.60;54.70;;;;;;4231655;28;20048;-57
2021/08/12 03:56:48;;;;;;;6.68;3.70;;;26.70;54.70;;;;;;4231221;28;20069;-58
2021/08/12 03:58:50;;;;;;;5.22;4.43;;;26.70;54.60;;;;;;4231176;28;20066;-58
2021/08/12 04:00:56;;;;;;;6.90;4.45;;;26.60;54.60;;;;;;4231446;28;20122;-58
2021/08/12 04:02:59;;;;;;;6.70;4.38;;;26.70;54.70;;;;;;4231328;28;20044;-58
2021/08/12 04:05:02;;;;;;;5.75;4.28;;;26.70;54.80;;;;;;4231153;28;20044;-58
2021/08/12 04:07:04;;;;;;;6.22;4.13;;;26.70;54.80;;;;;;4231580;28;20400;-58
2021/08/12 04:09:06;;;;;;;7.40;4.18;;;26.70;54.70;;;;;;4231560;28;20050;-58
2021/08/12 04:11:08;;;;;;;5.82;4.32;;;26.70;54.80;;;;;;4231275;28;20104;-58
2021/08/12 04:13:10;;;;;;;6.68;3.88;;;26.60;54.80;;;;;;4231342;28;20047;-58
2021/08/12 04:15:12;;;;;;;6.82;4.97;;;26.70;54.70;;;;;;4231298;28;20052;-57
2021/08/12 04:17:15;;;;;;;7.32;5.03;;;26.70;55.00;;;;;;4231342;28;20047;-58
2021/08/12 04:19:17;;;;;;;8.13;4.53;;;26.70;55.00;;;;;;4231240;28;20074;-58
2021/08/12 04:21:19;;;;;;;6.35;4.55;;;26.70;55.00;;;;;;4231200;28;20048;-58
2021/08/12 04:23:21;;;;;;;6.03;4.40;;;26.70;55.00;;;;;;4231060;28;20455;-58
2021/08/12 04:25:23;;;;;;;5.53;4.15;;;26.70;55.00;;;;;;4231213;28;20050;-57
2021/08/12 04:27:25;;;;;;;6.85;4.82;;;26.70;55.20;;;;;;4231057;28;20044;-58
2021/08/12 04:29:27;;;;;;;6.53;4.50;;;26.70;55.10;;;;;;4231371;28;20050;-57
2021/08/12 04:31:29;;;;;;;7.40;4.32;;;26.70;55.10;;;;;;4231250;28;20040;-57
2021/08/12 04:33:31;;;;;;;10.88;5.10;;;26.70;55.20;;;;;;4231099;28;20104;-57
2021/08/12 04:35:33;;;;;;;10.82;4.18;;;26.70;55.30;;;;;;4231072;28;20047;-57
2021/08/12 04:37:44;;;;;;;7.47;4.55;;;26.70;55.40;;;;;;4231193;28;20051;-57
2021/08/12 04:39:46;;;;;;;9.60;4.18;;;26.70;55.60;;;;;;4230971;28;20043;-57
2021/08/12 04:41:48;;;;;;;5.82;4.35;;;26.70;55.20;;;;;;4231022;28;20503;-57
2021/08/12 04:43:50;;;;;;;5.63;4.35;;;26.70;55.20;;;;;;4231054;28;20044;-57
2021/08/12 04:45:52;;;;;;;6.93;4.40;;;26.70;55.20;;;;;;4231281;28;20051;-57
2021/08/12 04:48:02;;;;;;;5.68;4.28;;;26.70;55.30;;;;;;4231072;28;20044;-57
2021/08/12 04:50:06;;;;;;;7.78;4.45;;;26.70;55.30;;;;;;4231252;28;20058;-57
2021/08/12 04:52:09;;;;;;;8.35;5.45;;;26.60;55.20;;;;;;4231165;28;20062;-57
2021/08/12 04:54:11;;;;;;;11.02;4.88;;;26.70;55.30;;;;;;4231003;28;20047;-57
2021/08/12 04:56:13;;;;;;;7.45;4.70;;;26.70;55.30;;;;;;4230924;28;20446;-57
2021/08/12 04:58:16;;;;;;;17.23;5.55;;;26.70;55.30;;;;;;4230984;28;20107;-57
2021/08/12 05:00:19;;;;;;;13.15;6.43;;;26.70;54.90;;;;;;4234016;28;20048;-58
2021/08/12 05:02:21;;;;;;;14.32;6.57;;;26.60;54.00;;;;;;4233402;28;20050;-57
2021/08/12 05:04:23;;;;;;;16.67;9.57;;;26.60;53.90;;;;;;4233731;28;20040;-58
2021/08/12 05:06:25;;;;;;;11.80;5.70;;;26.50;54.00;;;;;;4233854;28;20106;-58
2021/08/12 05:08:27;;;;;;;18.40;8.68;;;26.40;54.10;;;;;;4232588;28;20039;-57
2021/08/12 05:10:29;;;;;;;13.02;5.95;;;26.40;54.10;;;;;;4233884;28;20105;-58
2021/08/12 05:12:31;;;;;;;10.25;5.88;;;26.40;54.00;;;;;;4233960;28;20058;-58
2021/08/12 05:14:33;;;;;;;17.48;7.80;;;26.40;54.20;;;;;;4233977;28;20044;-60
2021/08/12 05:16:35;;;;;;;6.72;5.32;;;26.40;54.40;;;;;;4233730;28;20044;-58
2021/08/12 05:18:37;;;;;;;18.35;9.23;;;26.40;54.30;;;;;;4233626;28;20055;-59
2021/08/12 05:20:39;;;;;;;8.68;5.60;;;26.40;54.30;;;;;;4233571;28;20048;-58
2021/08/12 05:22:41;;;;;;;10.57;5.72;;;26.40;54.30;;;;;;4233543;28;20052;-58
2021/08/12 05:24:43;;;;;;;13.93;5.35;;;26.30;54.50;;;;;;4233839;28;20059;-58
2021/08/12 05:26:45;;;;;;;11.55;6.93;;;26.40;54.50;;;;;;4233611;28;20051;-58
2021/08/12 05:28:47;;;;;;;11.77;5.43;;;26.40;54.50;;;;;;4233554;28;20051;-58
2021/08/12 05:30:49;;;;;;;17.20;5.13;;;26.40;54.50;;;;;;4233520;28;20044;-58
2021/08/12 05:32:51;;;;;;;11.02;6.22;;;26.30;54.70;;;;;;4233575;28;20073;-58
2021/08/12 05:34:54;;;;;;;12.07;5.65;;;26.30;54.60;;;;;;4233746;28;20052;-58
2021/08/12 05:36:56;;;;;;;13.27;7.13;;;26.30;54.60;;;;;;4233719;28;20112;-58
2021/08/12 05:38:58;;;;;;;9.63;6.22;;;26.30;54.80;;;;;;4233446;28;20048;-58
2021/08/12 05:41:00;;;;;;;13.23;6.90;;;26.30;54.70;;;;;;4233370;28;20047;-58
2021/08/12 05:43:03;;;;;;;15.50;6.45;;;26.30;54.80;;;;;;4233384;28;20040;-58
2021/08/12 05:45:05;;;;;;;16.00;6.75;;;26.30;54.80;;;;;;4233358;28;20044;-58
2021/08/12 05:47:07;;;;;;;10.68;5.95;;;26.30;54.70;;;;;;4233536;28;20048;-58
2021/08/12 05:49:09;;;;;;;13.98;5.65;;;26.30;54.60;;;;;;4233374;28;20097;-57
2021/08/12 05:51:12;;;;;;;11.43;5.78;;;26.30;54.60;;;;;;4233092;28;20131;-58
2021/08/12 05:53:18;;;;;;;15.90;6.30;;;26.30;54.50;;;;;;4233271;28;20112;-58
2021/08/12 05:55:20;;;;;;;16.95;7.32;;;26.30;54.60;;;;;;4233187;28;20052;-58
2021/08/12 05:57:22;;;;;;;12.30;6.13;;;26.30;54.40;;;;;;4233150;28;20070;-58
2021/08/12 05:59:24;;;;;;;10.05;5.55;;;26.30;54.40;;;;;;4233247;28;20067;-59
2021/08/12 06:01:26;;;;;;;8.77;5.63;;;26.30;54.40;;;;;;4233350;28;20047;-58
2021/08/12 06:03:29;;;;;;;12.07;5.78;;;26.30;54.20;;;;;;4232979;28;20048;-58
2021/08/12 06:05:31;;;;;;;15.23;5.60;;;26.20;54.20;;;;;;4232977;28;20050;-58
2021/08/12 06:07:36;;;;;;;14.40;6.55;;;26.30;54.30;;;;;;4233029;28;20044;-58
2021/08/12 06:09:38;;;;;;;16.10;5.97;;;26.20;54.20;;;;;;4232716;28;20044;-58
2021/08/12 06:11:40;;;;;;;12.20;5.68;;;26.30;54.30;;;;;;4233082;28;20482;-58
2021/08/12 06:13:42;;;;;;;13.10;6.10;;;26.30;54.30;;;;;;4233128;28;20048;-58
2021/08/12 06:15:44;;;;;;;14.02;5.88;;;26.20;54.30;;;;;;4232862;28;20048;-58
2021/08/12 06:17:46;;;;;;;10.63;5.00;;;26.30;54.40;;;;;;4232916;28;20054;-58
2021/08/12 06:19:48;;;;;;;14.25;6.40;;;26.30;54.40;;;;;;4232872;28;20120;-57
2021/08/12 06:21:50;;;;;;;19.55;5.78;;;26.30;54.60;;;;;;4232702;28;20054;-57
2021/08/12 06:23:52;;;;;;;15.25;7.90;;;26.30;55.00;;;;;;4232914;28;20048;-57
2021/08/12 06:25:55;;;;;;;59.25;43.22;;;26.20;54.80;;;;;;4232785;28;20074;-57
2021/08/12 06:27:57;;;;;;;43.95;31.48;;;26.20;55.00;;;;;;4232797;28;20048;-57
2021/08/12 06:29:59;;;;;;;31.15;21.90;;;26.20;55.00;;;;;;4232677;28;20050;-57
2021/08/12 06:32:01;;;;;;;28.70;16.63;;;26.20;55.20;;;;;;4232681;28;20070;-57
2021/08/12 06:34:04;;;;;;;32.33;19.75;;;26.20;55.40;;;;;;4232980;28;20070;-57
2021/08/12 06:36:06;;;;;;;25.17;14.80;;;26.20;55.40;;;;;;4232906;28;20104;-57
2021/08/12 06:38:08;;;;;;;26.92;14.40;;;26.20;55.20;;;;;;4232744;28;20044;-57
2021/08/12 06:40:13;;;;;;;21.25;14.25;;;26.30;55.20;;;;;;4232724;28;20047;-57
2021/08/12 06:42:15;;;;;;;25.80;13.32;;;26.30;55.20;;;;;;4232456;28;20048;-57
2021/08/12 06:44:17;;;;;;;20.55;12.05;;;26.30;55.20;;;;;;4232603;28;20100;-57
2021/08/12 06:46:19;;;;;;;21.30;14.27;;;26.30;55.20;;;;;;4232620;28;20086;-57
2021/08/12 06:48:21;;;;;;;19.40;13.15;;;26.30;55.30;;;;;;4232740;28;20044;-57
2021/08/12 06:50:24;;;;;;;17.85;11.23;;;26.30;55.40;;;;;;4232511;28;20052;-57
2021/08/12 06:52:26;;;;;;;17.73;11.68;;;26.40;55.30;;;;;;4232329;28;20127;-57
2021/08/12 06:54:28;;;;;;;21.50;11.70;;;26.30;55.30;;;;;;4232354;28;20055;-57
2021/08/12 06:56:30;;;;;;;23.23;12.32;;;26.30;55.30;;;;;;4214599;28;20071;-57
2021/08/12 06:58:33;;;;;;;17.17;11.18;;;26.40;55.40;;;;;;4232566;28;20040;-57
2021/08/12 07:00:35;;;;;;;20.17;12.65;;;26.30;55.40;;;;;;4232268;28;20043;-57
2021/08/12 07:02:37;;;;;;;19.17;11.95;;;26.40;55.50;;;;;;4232067;28;20044;-57
2021/08/12 07:04:39;;;;;;;22.73;11.90;;;26.40;55.80;;;;;;4232711;28;20141;-57
2021/08/12 07:06:41;;;;;;;17.52;11.05;;;26.40;55.90;;;;;;4232590;28;20133;-57
2021/08/12 07:08:43;;;;;;;16.70;11.48;;;26.40;55.70;;;;;;4231952;28;20052;-57
2021/08/12 07:10:46;;;;;;;21.50;10.60;;;26.40;56.00;;;;;;4224779;28;20044;-51
2021/08/12 07:12:48;;;;;;;17.48;10.02;;;26.40;55.80;;;;;;4230952;28;20044;-52
2021/08/12 07:14:50;;;;;;;17.58;9.52;;;26.40;55.50;;;;;;4230861;28;20079;-52
2021/08/12 07:16:52;;;;;;;13.75;8.52;;;26.40;55.40;;;;;;4230938;28;20089;-50
2021/08/12 07:18:54;;;;;;;13.05;7.85;;;26.40;55.30;;;;;;4230985;28;20051;-51
2021/08/12 07:20:56;;;;;;;14.23;7.40;;;26.40;55.10;;;;;;4230516;28;20112;-51
2021/08/12 07:22:58;;;;;;;13.02;6.93;;;26.40;55.00;;;;;;4230438;28;20099;-49
2021/08/12 07:25:00;;;;;;;11.65;6.65;;;26.40;55.10;;;;;;4230796;28;20051;-50
2021/08/12 07:27:02;;;;;;;12.82;8.02;;;26.40;55.30;;;;;;4226549;28;20387;-52
2021/08/12 07:29:04;;;;;;;16.73;8.20;;;26.50;55.30;;;;;;4229695;28;20103;-50
2021/08/12 07:31:12;;;;;;;14.18;9.00;;;26.50;55.40;;;;;;4231514;28;20046;-54
2021/08/12 07:33:14;;;;;;;26.35;19.90;;;26.50;55.40;;;;;;4230852;28;20055;-49
2021/08/12 07:35:18;;;;;;;40.53;34.13;;;26.50;55.50;;;;;;4231364;28;20044;-51
2021/08/12 07:37:21;;;;;;;40.45;26.00;;;26.50;55.30;;;;;;4232129;28;20048;-50
2021/08/12 07:39:23;;;;;;;30.75;21.27;;;26.50;55.30;;;;;;4231415;28;20063;-50
2021/08/12 07:41:25;;;;;;;25.33;18.15;;;26.50;55.30;;;;;;4231547;28;20405;-49
2021/08/12 07:43:28;;;;;;;17.38;14.93;;;26.50;55.30;;;;;;4231565;28;20100;-46
2021/08/12 07:45:30;;;;;;;21.10;14.15;;;26.50;55.00;;;;;;4232332;28;20046;-47
2021/08/12 07:47:32;;;;;;;14.07;10.90;;;26.50;55.00;;;;;;4232411;28;20065;-48
2021/08/12 07:49:34;;;;;;;16.58;10.18;;;26.50;54.60;;;;;;4231866;28;20044;-47
2021/08/12 07:51:36;;;;;;;15.85;11.05;;;26.60;54.60;;;;;;4231051;28;20047;-48
2021/08/12 07:53:38;;;;;;;11.77;10.00;;;26.50;54.80;;;;;;4230523;28;20094;-47
2021/08/12 07:55:41;;;;;;;12.50;7.57;;;26.60;54.90;;;;;;4230631;28;20048;-49
2021/08/12 07:57:43;;;;;;;16.45;8.20;;;26.50;54.80;;;;;;4230998;28;20055;-50
2021/08/12 07:59:45;;;;;;;13.85;7.07;;;26.60;54.90;;;;;;4231696;28;20175;-46
2021/08/12 08:01:47;;;;;;;16.58;8.45;;;26.60;55.00;;;;;;4230720;28;20093;-46
2021/08/12 08:03:51;;;;;;;13.90;7.15;;;26.60;55.10;;;;;;4230940;28;20044;-54
2021/08/12 08:05:53;;;;;;;16.33;8.23;;;26.60;55.00;;;;;;4230181;28;20112;-55
2021/08/12 08:07:56;;;;;;;16.05;8.20;;;26.60;55.10;;;;;;4230000;28;20040;-57
2021/08/12 08:09:58;;;;;;;13.18;8.20;;;26.60;54.90;;;;;;3872573;28;10000084;-57
2021/08/12 08:12:00;;;;;;;13.38;6.95;;;26.60;55.00;;;;;;4212842;28;20049;-57
2021/08/12 08:14:02;;;;;;;8.57;6.10;;;26.60;54.80;;;;;;4213067;28;20048;-57
2021/08/12 08:16:04;;;;;;;9.52;6.15;;;26.60;54.70;;;;;;4212795;28;20063;-56
2021/08/12 08:18:06;;;;;;;13.05;7.32;;;26.70;54.90;;;;;;4212978;28;20048;-52
2021/08/12 08:20:10;;;;;;;8.52;6.72;;;26.70;55.00;;;;;;4213336;28;20045;-54
2021/08/12 08:22:12;;;;;;;12.18;8.23;;;26.70;55.10;;;;;;4213702;28;20055;-50
2021/08/12 08:24:14;;;;;;;13.20;7.00;;;26.70;55.00;;;;;;4214318;28;20110;-52
2021/08/12 08:26:16;;;;;;;10.18;7.43;;;26.70;54.90;;;;;;4214921;28;20041;-47
2021/08/12 08:28:18;;;;;;;12.18;8.45;;;26.70;54.60;;;;;;4214906;28;20075;-47
2021/08/12 08:30:20;;;;;;;11.50;7.97;;;26.70;54.80;;;;;;4214545;28;20040;-47
2021/08/12 08:32:23;;;;;;;11.95;7.18;;;26.70;54.60;;;;;;4214982;28;20048;-47
2021/08/12 08:34:24;;;;;;;11.18;6.78;;;26.80;54.80;;;;;;4217910;28;20053;-46
2021/08/12 08:36:27;;;;;;;14.23;6.15;;;26.70;54.60;;;;;;4217736;28;20116;-47
2021/08/12 08:38:30;;;;;;;11.77;7.20;;;26.80;54.40;;;;;;4218099;28;20074;-48
2021/08/12 08:40:34;;;;;;;8.80;6.28;;;26.70;54.10;;;;;;4217157;28;20074;-48
2021/08/12 08:42:38;;;;;;;11.88;6.30;;;26.80;54.70;;;;;;4217500;28;20076;-47
2021/08/12 08:44:45;;;;;;;9.15;7.15;;;26.80;54.10;;;;;;4233909;28;20041;-50
2021/08/12 08:46:48;;;;;;;12.68;7.05;;;26.80;54.60;;;;;;4234430;28;20473;-48
2021/08/12 08:48:57;;;;;;;12.90;7.65;;;26.80;54.60;;;;;;4235019;28;20158;-47
2021/08/12 08:51:01;;;;;;;9.43;6.40;;;26.80;54.70;;;;;;4216863;28;20087;-47
2021/08/12 08:53:04;;;;;;;12.05;7.18;;;26.80;53.90;;;;;;4234470;28;20048;-54
2021/08/12 08:55:06;;;;;;;8.63;5.95;;;26.80;54.50;;;;;;4233665;28;20047;-54
2021/08/12 08:57:09;;;;;;;11.77;6.10;;;26.80;54.50;;;;;;4233798;28;20055;-53
2021/08/12 08:59:12;;;;;;;10.32;7.72;;;26.80;54.40;;;;;;4233666;28;20116;-52
2021/08/12 09:01:14;;;;;;;11.00;8.73;;;26.80;54.40;;;;;;4233571;28;20047;-53
2021/08/12 09:03:16;;;;;;;14.85;11.40;;;26.80;54.70;;;;;;4233508;28;20036;-54
2021/08/12 09:05:19;;;;;;;17.27;9.32;;;26.80;54.30;;;;;;4233234;28;20477;-47
2021/08/12 09:07:21;;;;;;;13.93;8.20;;;26.80;54.90;;;;;;4233175;28;20048;-47
2021/08/12 09:09:24;;;;;;;17.30;8.32;;;26.80;54.90;;;;;;4223854;28;20052;-46
2021/08/12 09:11:26;;;;;;;19.63;10.00;;;26.80;54.90;;;;;;4233374;28;20048;-49
2021/08/12 09:13:29;;;;;;;14.43;8.63;;;26.90;54.80;;;;;;4232101;28;20059;-49
2021/08/12 09:15:39;;;;;;;14.98;9.80;;;26.80;54.90;;;;;;4232238;28;20125;-52
2021/08/12 09:17:44;;;;;;;18.45;10.10;;;26.80;54.70;;;;;;4231940;28;20403;-53
2021/08/12 09:20:07;;;;;;;12.02;9.63;;;26.80;54.70;;;;;;4232479;28;20070;-56
2021/08/12 09:22:09;;;;;;;13.65;8.23;;;26.80;54.60;;;;;;4215814;28;20048;-56
2021/08/12 09:24:11;;;;;;;14.45;7.47;;;26.90;54.50;;;;;;4215880;28;20050;-56
2021/08/12 09:26:19;;;;;;;9.32;7.43;;;26.80;53.90;;;;;;4216127;28;20126;-56
2021/08/12 09:28:29;;;;;;;10.02;7.78;;;26.80;53.30;;;;;;4215877;28;20040;-56
2021/08/12 09:30:31;;;;;;;11.30;8.23;;;26.80;54.20;;;;;;4215919;28;20554;-56
2021/08/12 09:32:47;;;;;;;14.73;8.55;;;26.80;54.70;;;;;;4216049;28;20067;-56
2021/08/12 09:34:49;;;;;;;15.05;7.57;;;26.80;54.00;;;;;;4215779;28;20051;-56
2021/08/12 09:37:04;;;;;;;13.45;10.73;;;26.80;54.60;;;;;;4215769;28;20044;-56
2021/08/12 09:39:19;;;;;;;13.50;10.05;;;26.80;54.60;;;;;;4215293;28;20048;-55
2021/08/12 09:41:23;;;;;;;15.45;10.90;;;26.80;54.60;;;;;;4215719;28;20113;-54
2021/08/12 09:43:33;;;;;;;13.70;10.43;;;26.90;54.40;;;;;;4215607;28;20055;-51
2021/08/12 09:45:36;;;;;;;9.95;8.55;;;26.90;54.20;;;;;;4214889;28;20049;-51
2021/08/12 09:47:38;;;;;;;13.57;10.30;;;26.90;54.50;;;;;;4229155;28;20432;-52
2021/08/12 09:49:43;;;;;;;17.92;11.10;;;26.90;54.30;;;;;;4249493;28;20044;-50
2021/08/12 09:51:45;;;;;;;16.10;10.95;;;26.90;54.30;;;;;;4249120;28;20055;-49
2021/08/12 09:54:04;;;;;;;14.38;10.77;;;26.90;54.20;;;;;;4250658;28;20050;-49
2021/08/12 09:56:10;;;;;;;12.75;10.73;;;26.90;53.90;;;;;;4250471;28;20048;-48
2021/08/12 09:58:14;;;;;;;13.55;10.00;;;26.90;54.40;;;;;;4249296;28;20076;-50
2021/08/12 10:00:25;;;;;;;11.80;8.93;;;26.90;54.40;;;;;;4249403;28;20051;-47
2021/08/12 10:02:31;;;;;;;10.73;9.00;;;26.90;54.10;;;;;;4250148;28;20048;-49
2021/08/12 10:04:33;;;;;;;10.80;8.57;;;26.90;54.40;;;;;;4246382;28;20044;-50
2021/08/12 10:06:36;;;;;;;10.48;8.45;;;26.90;54.40;;;;;;4248891;28;20081;-48
2021/08/12 10:08:39;;;;;;;11.38;8.07;;;26.90;54.30;;;;;;4231729;28;20070;-55
2021/08/12 10:10:41;;;;;;;13.70;8.13;;;26.90;54.50;;;;;;4230536;28;20104;-52
2021/08/12 10:12:46;;;;;;;13.40;7.95;;;26.90;53.90;;;;;;4214669;28;20621;-52
2021/08/12 10:14:48;;;;;;;11.55;9.70;;;26.90;54.40;;;;;;4214596;28;20493;-56
2021/08/12 10:16:51;;;;;;;10.23;8.55;;;26.90;54.60;;;;;;4215931;28;20053;-60
2021/08/12 10:18:55;;;;;;;21.35;10.55;;;26.90;54.50;;;;;;4214228;28;20063;-59
2021/08/12 10:20:57;;;;;;;12.38;9.98;;;26.90;54.50;;;;;;4213380;28;20078;-58
2021/08/12 10:23:05;;;;;;;19.35;10.05;;;26.90;54.20;;;;;;4215699;28;20120;-59
2021/08/12 10:25:07;;;;;;;;;;;26.90;54.50;;;;;;4216158;28;20045;-59
2021/08/12 10:27:12;;;;;;;25.25;9.73;;;26.90;53.50;;;;;;4216718;28;19920;-58
2021/08/12 10:29:22;;;;;;;12.45;8.95;;;26.90;53.80;;;;;;4216935;28;20045;-58
2021/08/12 10:31:28;;;;;;;29.02;10.75;;;26.90;53.40;;;;;;4216956;28;20078;-58
2021/08/12 10:33:32;;;;;;;23.52;9.23;;;26.90;54.40;;;;;;4216900;28;20099;-58
2021/08/12 10:35:36;;;;;;;20.38;8.88;;;26.90;54.90;;;;;;4216638;28;20094;-58
2021/08/12 10:37:38;;;;;;;28.08;8.77;;;26.90;54.90;;;;;;4216307;28;20066;-57
2021/08/12 10:39:40;;;;;;;16.73;8.85;;;26.90;55.30;;;;;;4216847;28;20058;-56